Time;durP1;ratioP1;P1;durP2;ratioP2;P2;SDS_P1;SDS_P2;PMS_P1;PMS_P2;Temp;Humidity;BMP_temperature;BMP_pressure;BME280_temperature;BME280_humidity;BME280_pressure;Samples;Min_cycle;Max_cycle;Signal;HPM_P1;HPM_P2
2022/05/21 00:01:06;;;;;;;10.50;9.10;;;;;;;20.71;92.26;98487.28;4210113;28;20651;-88
2022/05/21 00:03:10;;;;;;;9.20;8.30;;;;;;;20.68;93.73;98497.38;4194690;28;21079;-89
2022/05/21 00:05:16;;;;;;;11.53;8.10;;;;;;;20.66;93.46;98496.66;4188805;28;20627;-90
2022/05/21 00:07:25;;;;;;;11.27;8.83;;;;;;;20.60;93.13;98498.13;4189669;28;21319;-88
2022/05/21 00:09:29;;;;;;;8.87;7.97;;;;;;;20.60;92.32;98508.72;4173420;28;20722;-88
2022/05/21 00:11:32;;;;;;;9.40;8.07;;;;;;;20.55;93.74;98504.88;4191658;28;20712;-89
2022/05/21 00:13:36;;;;;;;9.83;8.83;;;;;;;20.57;92.32;98522.28;4164561;28;20626;-89
2022/05/21 00:15:39;;;;;;;14.10;8.60;;;;;;;20.55;92.81;98518.97;4157552;28;20992;-89
2022/05/21 00:17:42;;;;;;;11.80;8.20;;;;;;;20.58;93.52;98510.72;4171008;28;20629;-90
2022/05/21 00:19:45;;;;;;;9.50;8.50;;;;;;;20.57;93.66;98517.00;4160589;28;20668;-89
2022/05/21 00:21:50;;;;;;;12.30;8.77;;;;;;;20.59;94.47;98516.84;4172987;28;20697;-90
2022/05/21 00:23:53;;;;;;;8.80;8.00;;;;;;;20.59;93.51;98512.34;4177083;28;20639;-89
2022/05/21 00:25:59;;;;;;;9.40;8.50;;;;;;;20.61;92.97;98513.06;4170650;28;20992;-89
2022/05/21 00:28:03;;;;;;;9.80;8.80;;;;;;;20.62;92.97;98514.69;4159397;28;20617;-90
2022/05/21 00:30:08;;;;;;;8.77;7.70;;;;;;;20.62;93.38;98513.88;4157775;28;20638;-89
2022/05/21 00:32:11;;;;;;;8.87;7.90;;;;;;;20.63;93.33;98523.50;4177379;28;21210;-89
2022/05/21 00:34:15;;;;;;;9.20;8.20;;;;;;;20.58;93.99;98513.38;4159390;28;20737;-88
2022/05/21 00:36:18;;;;;;;9.60;8.57;;;;;;;20.58;93.22;98525.75;4192656;28;20734;-89
2022/05/21 00:38:24;;;;;;;11.43;8.73;;;;;;;20.57;93.77;98538.19;4178434;28;20724;-88
2022/05/21 00:40:29;;;;;;;9.50;8.00;;;;;;;20.52;91.74;98524.59;4175690;28;21377;-89
2022/05/21 00:42:32;;;;;;;9.23;8.13;;;;;;;20.48;93.10;98535.66;4158493;28;20634;-89
2022/05/21 00:44:36;;;;;;;8.10;7.03;;;;;;;20.46;93.58;98538.47;4190866;28;20638;-89
2022/05/21 00:46:41;;;;;;;8.73;7.63;;;;;;;20.44;91.72;98537.75;4177487;28;20671;-89
2022/05/21 00:48:46;;;;;;;8.80;7.90;;;;;;;20.40;93.33;98547.03;4176537;28;20631;-89
2022/05/21 00:50:50;;;;;;;10.83;7.87;;;;;;;20.32;91.53;98541.63;4160797;28;20728;-89
2022/05/21 00:52:53;;;;;;;9.70;8.33;;;;;;;20.30;92.70;98545.44;4160176;28;20641;-88
2022/05/21 00:55:01;;;;;;;9.10;8.30;;;;;;;20.30;93.26;98552.56;4159429;28;21011;-89
2022/05/21 00:57:08;;;;;;;8.90;8.00;;;;;;;20.25;92.14;98544.25;4175204;28;21235;-89
2022/05/21 01:01:36;;;;;;;9.53;8.00;;;;;;;20.25;92.02;98560.13;4159498;28;20751;-89
2022/05/21 01:03:40;;;;;;;8.93;8.03;;;;;;;20.22;92.67;98557.78;4173121;28;20728;-89
2022/05/21 01:05:44;;;;;;;8.43;7.73;;;;;;;20.19;91.47;98556.31;4176400;28;20639;-88
2022/05/21 01:07:48;;;;;;;8.03;7.23;;;;;;;20.14;90.43;98558.56;4176710;28;21200;-89
2022/05/21 01:09:54;;;;;;;9.30;8.20;;;;;;;20.11;90.19;98556.19;4175609;28;20668;-88
2022/05/21 01:11:59;;;;;;;8.70;7.90;;;;;;;20.10;90.99;98564.31;4173836;28;20670;-89
2022/05/21 01:14:03;;;;;;;9.53;7.43;;;;;;;20.10;90.33;98565.16;4176412;28;20644;-89
2022/05/21 01:16:07;;;;;;;9.03;7.90;;;;;;;20.08;90.65;98567.09;4157635;28;20752;-88
2022/05/21 01:18:10;;;;;;;8.07;7.20;;;;;;;20.07;89.32;98573.41;4188668;28;20628;-89
2022/05/21 01:20:16;;;;;;;8.33;7.50;;;;;;;20.05;89.18;98571.88;4172989;28;20780;-88
2022/05/21 01:22:19;;;;;;;8.27;6.80;;;;;;;20.00;89.70;98567.03;4165235;28;20715;-88
2022/05/21 01:24:23;;;;;;;8.50;7.80;;;;;;;19.99;89.60;98572.47;4171401;28;21276;-88
2022/05/21 01:26:27;;;;;;;9.40;7.53;;;;;;;19.97;89.69;98579.75;4159860;28;20745;-89
2022/05/21 01:28:34;;;;;;;8.47;7.47;;;;;;;19.92;90.87;98574.06;4161850;28;20679;-88
2022/05/21 01:30:40;;;;;;;8.13;7.20;;;;;;;19.91;89.17;98575.06;4157913;28;20635;-89
2022/05/21 01:32:45;;;;;;;7.10;6.40;;;;;;;19.89;89.64;98582.31;4172233;28;20669;-88
2022/05/21 01:34:49;;;;;;;13.23;7.20;;;;;;;19.86;89.98;98575.50;4175724;28;20698;-89
2022/05/21 01:36:52;;;;;;;10.20;7.43;;;;;;;19.87;89.38;98578.97;4187888;28;20625;-89
2022/05/21 01:38:55;;;;;;;7.93;6.77;;;;;;;19.86;90.32;98582.63;4178333;28;20628;-90
2022/05/21 01:41:00;;;;;;;8.00;6.93;;;;;;;19.85;89.56;98586.22;4160675;28;20711;-89
2022/05/21 01:45:25;;;;;;;8.00;7.20;;;;;;;19.79;89.39;98575.41;4176194;28;20628;-88
2022/05/21 01:47:31;;;;;;;7.70;7.00;;;;;;;19.73;88.35;98576.00;4156794;28;20665;-88
2022/05/21 01:49:34;;;;;;;7.60;6.80;;;;;;;19.72;88.43;98580.44;4159907;28;20669;-89
2022/05/21 01:51:37;;;;;;;8.90;7.60;;;;;;;19.71;89.12;98583.22;4180737;28;21221;-88
2022/05/21 01:53:41;;;;;;;23.90;7.97;;;;;;;19.65;87.22;98600.56;4165199;28;20633;-87
2022/05/21 01:55:45;;;;;;;9.67;8.03;;;;;;;19.59;88.35;98595.88;4157927;28;20633;-89
2022/05/21 01:57:59;;;;;;;8.37;7.40;;;;;;;19.61;88.35;98609.78;4177420;28;20643;-89
2022/05/21 02:00:02;;;;;;;7.83;7.13;;;;;;;19.54;87.18;98615.81;4160170;28;20727;-88
2022/05/21 02:02:13;;;;;;;8.60;7.80;;;;;;;19.51;89.88;98616.91;4191819;28;20674;-89
2022/05/21 02:04:17;;;;;;;6.90;6.30;;;;;;;19.49;88.29;98618.06;4158887;28;20764;-89
2022/05/21 02:06:20;;;;;;;8.10;7.17;;;;;;;19.44;88.20;98634.38;4176976;28;21211;-89
2022/05/21 02:08:24;;;;;;;6.83;6.10;;;;;;;19.39;87.01;98635.78;4173438;28;20652;-88
2022/05/21 02:10:27;;;;;;;6.13;5.53;;;;;;;19.37;86.29;98638.56;4179251;28;20994;-89
2022/05/21 02:12:30;;;;;;;6.83;5.63;;;;;;;19.30;86.39;98635.84;4159846;28;20886;-89
2022/05/21 02:14:35;;;;;;;7.00;5.00;;;;;;;19.23;85.59;98637.38;4194016;28;20717;-89
2022/05/21 02:16:39;;;;;;;6.17;5.17;;;;;;;19.16;84.73;98641.59;4178429;28;20683;-89
2022/05/21 02:18:43;;;;;;;6.93;4.70;;;;;;;19.07;83.81;98640.63;4180029;28;20625;-89
2022/05/21 02:20:47;;;;;;;7.00;5.07;;;;;;;19.06;84.37;98643.41;4177929;28;20635;-89
2022/05/21 02:22:50;;;;;;;13.10;4.93;;;;;;;19.00;84.64;98642.16;4192816;28;20676;-89
2022/05/21 02:24:54;;;;;;;5.27;4.80;;;;;;;18.96;84.83;98648.72;4176341;28;20633;-88
2022/05/21 02:26:57;;;;;;;5.77;4.57;;;;;;;18.95;83.69;98652.31;4191752;28;20639;-89
2022/05/21 02:29:01;;;;;;;4.53;3.93;;;;;;;18.87;83.19;98659.31;4175486;28;21218;-90
2022/05/21 02:31:05;;;;;;;8.13;4.70;;;;;;;18.80;83.05;98658.19;4175132;28;20644;-87
2022/05/21 02:33:09;;;;;;;6.10;4.93;;;;;;;18.77;83.38;98658.47;4189206;28;20629;-89
2022/05/21 02:35:12;;;;;;;6.37;4.40;;;;;;;18.74;83.44;98663.22;4179570;28;21063;-89
2022/05/21 02:39:36;;;;;;;7.37;4.20;;;;;;;18.59;82.12;98667.28;4160165;28;21090;-90
2022/05/21 02:41:39;;;;;;;6.40;3.90;;;;;;;18.57;82.71;98669.22;4174662;28;21018;-90
2022/05/21 02:43:43;;;;;;;4.37;3.97;;;;;;;18.50;82.25;98663.63;4178894;28;20636;-89
2022/05/21 02:45:46;;;;;;;7.17;4.40;;;;;;;18.47;82.40;98669.19;4175556;28;21111;-89
2022/05/21 02:47:51;;;;;;;4.70;4.20;;;;;;;18.46;82.79;98677.28;4193828;28;20627;-89
2022/05/21 02:49:55;;;;;;;4.47;4.07;;;;;;;18.42;81.58;98679.38;4164348;28;20618;-89
2022/05/21 02:51:58;;;;;;;4.87;3.50;;;;;;;18.37;81.45;98679.91;4174412;28;20628;-91
2022/05/21 02:54:01;;;;;;;6.50;4.10;;;;;;;18.36;82.31;98683.53;4173150;28;20621;-89
2022/05/21 02:56:05;;;;;;;6.00;3.70;;;;;;;18.34;83.89;98682.84;4157758;28;21207;-89
2022/05/21 02:58:09;;;;;;;5.63;4.73;;;;;;;18.29;82.15;98691.16;4190347;28;20636;-89
2022/05/21 03:00:16;;;;;;;4.97;4.47;;;;;;;18.30;83.41;98684.09;4176693;28;20727;-89
2022/05/21 03:02:20;;;;;;;5.23;4.23;;;;;;;18.27;82.80;98679.09;4172069;28;20764;-89
2022/05/21 03:04:24;;;;;;;6.30;3.80;;;;;;;18.26;82.20;98695.91;4191196;28;20620;-89
2022/05/21 03:06:28;;;;;;;5.50;4.13;;;;;;;18.18;83.78;98696.59;4174226;28;20636;-89
2022/05/21 03:10:52;;;;;;;5.73;3.67;;;;;;;18.17;83.25;98689.63;4162253;28;21185;-89
2022/05/21 03:12:58;;;;;;;5.70;4.47;;;;;;;18.14;83.18;98692.53;4159628;28;21078;-89
2022/05/21 03:15:01;;;;;;;4.87;4.30;;;;;;;18.13;83.33;98695.31;4173790;28;21190;-89
2022/05/21 03:17:05;;;;;;;6.53;4.13;;;;;;;18.11;84.57;98694.59;4177711;28;20625;-89
2022/05/21 03:19:09;;;;;;;5.33;4.50;;;;;;;18.12;84.62;98702.38;4186058;28;20616;-89
2022/05/21 03:21:14;;;;;;;4.53;4.10;;;;;;;18.13;84.64;98703.22;4176984;28;21193;-89
2022/05/21 03:23:21;;;;;;;4.77;3.70;;;;;;;18.11;84.09;98695.41;4164788;28;21036;-89
2022/05/21 03:25:25;;;;;;;5.10;4.27;;;;;;;18.10;85.37;98698.19;4192120;28;21014;-88
2022/05/21 03:27:28;;;;;;;8.47;5.33;;;;;;;18.13;84.66;98713.78;4164209;28;20617;-89
2022/05/21 03:29:31;;;;;;;5.83;4.67;;;;;;;18.12;84.53;98712.13;4174943;28;20633;-89
2022/05/21 03:31:34;;;;;;;5.20;4.67;;;;;;;18.10;85.06;98708.75;4178519;28;20624;-89
2022/05/21 03:33:38;;;;;;;5.90;4.50;;;;;;;18.09;84.97;98710.56;4172689;28;23870;-89
2022/05/21 03:35:41;;;;;;;7.20;4.90;;;;;;;18.09;84.91;98720.31;4172255;28;20632;-89
2022/05/21 03:37:47;;;;;;;4.30;3.90;;;;;;;18.09;84.39;98718.50;4158251;28;21312;-89
2022/05/21 03:39:51;;;;;;;6.50;4.50;;;;;;;18.07;84.25;98712.53;4182189;28;20635;-89
2022/05/21 03:41:54;;;;;;;5.00;4.50;;;;;;;18.05;84.34;98716.25;4178517;28;20732;-90
2022/05/21 03:43:59;;;;;;;5.30;4.77;;;;;;;18.04;84.11;98726.00;4158411;28;20629;-89
2022/05/21 03:46:02;;;;;;;5.37;4.40;;;;;;;18.03;84.34;98718.22;4193831;28;20719;-90
2022/05/21 03:48:06;;;;;;;6.10;4.83;;;;;;;18.02;83.65;98727.09;4172441;28;20699;-89
2022/05/21 03:50:10;;;;;;;5.87;5.27;;;;;;;17.99;84.25;98730.81;4172583;28;20743;-89
2022/05/21 03:52:15;;;;;;;8.00;5.90;;;;;;;17.97;84.06;98726.66;4187931;28;20649;-89
2022/05/21 03:54:20;;;;;;;8.30;6.40;;;;;;;17.97;84.78;98727.50;4175313;28;20663;-88
2022/05/21 03:56:23;;;;;;;8.37;7.03;;;;;;;17.92;83.84;98732.34;4174462;28;21036;-89
2022/05/21 03:58:26;;;;;;;7.70;6.20;;;;;;;17.90;84.78;98728.16;4159877;28;21310;-89
2022/05/21 04:00:30;;;;;;;8.13;7.30;;;;;;;17.88;84.23;98730.09;4175843;28;21221;-90
2022/05/21 04:02:34;;;;;;;7.13;6.43;;;;;;;17.86;85.08;98732.06;4159075;28;20692;-89
2022/05/21 04:04:38;;;;;;;9.90;6.57;;;;;;;17.87;84.23;98738.16;4175709;28;20639;-89
2022/05/21 04:06:48;;;;;;;7.50;6.80;;;;;;;17.82;83.27;98738.56;4169531;28;20641;-89
2022/05/21 04:08:52;;;;;;;7.23;6.53;;;;;;;17.75;83.73;98740.03;4153578;28;20696;-89
2022/05/21 04:10:57;;;;;;;8.07;7.27;;;;;;;17.72;83.94;98745.59;4177121;28;20694;-89
2022/05/21 04:13:00;;;;;;;8.50;7.60;;;;;;;17.64;84.31;98745.41;4175625;28;21219;-88
2022/05/21 04:15:04;;;;;;;7.07;6.37;;;;;;;17.60;84.46;98749.28;4178461;28;21186;-89
2022/05/21 04:17:13;;;;;;;7.93;6.60;;;;;;;17.59;83.99;98747.63;4192119;28;20612;-89
2022/05/21 04:19:17;;;;;;;7.93;7.13;;;;;;;17.54;84.01;98748.97;4191814;28;20680;-89
2022/05/21 04:21:20;;;;;;;9.20;7.03;;;;;;;17.51;83.23;98752.75;4176043;28;20713;-89
2022/05/21 04:23:23;;;;;;;7.40;6.30;;;;;;;17.48;83.87;98758.28;4164160;28;20705;-89
2022/05/21 04:25:27;;;;;;;6.70;6.10;;;;;;;17.43;83.97;98758.78;4167010;28;20640;-88
2022/05/21 04:27:32;;;;;;;8.10;6.97;;;;;;;17.39;83.77;98752.94;4178479;28;20633;-89
2022/05/21 04:29:35;;;;;;;7.60;6.90;;;;;;;17.34;83.45;98751.66;4176865;28;20720;-89
2022/05/21 04:31:38;;;;;;;7.87;6.90;;;;;;;17.26;84.11;98747.03;4193457;28;20656;-89
2022/05/21 04:33:41;;;;;;;8.37;7.53;;;;;;;17.23;83.92;98747.28;4192405;28;20719;-87
2022/05/21 04:38:06;;;;;;;7.60;6.47;;;;;;;17.19;84.75;98745.00;4157938;28;20638;-89
2022/05/21 04:40:11;;;;;;;7.60;6.57;;;;;;;17.18;84.69;98748.59;4190766;28;21077;-89
2022/05/21 04:42:14;;;;;;;9.03;7.50;;;;;;;17.14;84.16;98750.66;4177915;28;20735;-89
2022/05/21 04:44:19;;;;;;;7.03;6.40;;;;;;;17.13;84.68;98756.06;4173857;28;20704;-89
2022/05/21 04:46:24;;;;;;;7.80;7.00;;;;;;;17.13;84.80;98758.72;4177632;28;21193;-88
2022/05/21 04:48:27;;;;;;;8.70;7.30;;;;;;;17.15;85.90;98764.69;4193148;28;20634;-89
2022/05/21 04:50:30;;;;;;;8.00;7.20;;;;;;;17.14;84.79;98774.41;4184006;28;20673;-88
2022/05/21 04:52:34;;;;;;;7.20;6.50;;;;;;;17.16;85.42;98769.81;4161920;28;21016;-89
2022/05/21 04:54:38;;;;;;;7.63;6.77;;;;;;;17.19;85.67;98781.94;4177177;28;21040;-89
2022/05/21 04:56:41;;;;;;;8.10;6.90;;;;;;;17.17;85.11;98775.91;4159323;28;20626;-89
2022/05/21 04:58:49;;;;;;;7.83;7.03;;;;;;;17.21;83.74;98786.13;4173326;28;21245;-88
2022/05/21 05:00:54;;;;;;;7.60;6.90;;;;;;;17.21;84.30;98790.56;4164014;28;20644;-88
2022/05/21 05:02:57;;;;;;;7.63;6.90;;;;;;;17.21;84.64;98787.94;4177671;28;20699;-88
2022/05/21 05:05:00;;;;;;;8.73;6.80;;;;;;;17.21;84.34;98785.28;4177276;28;20728;-89
2022/05/21 05:07:07;;;;;;;8.77;7.43;;;;;;;17.26;84.77;98783.09;4178201;28;20636;-89
2022/05/21 05:09:11;;;;;;;8.03;7.27;;;;;;;17.27;83.75;98776.88;4164888;28;21224;-89
2022/05/21 05:11:14;;;;;;;8.00;7.20;;;;;;;17.31;83.79;98786.22;4179307;28;20731;-90
2022/05/21 05:13:17;;;;;;;9.47;7.10;;;;;;;17.34;83.89;98784.13;4177638;28;20675;-89
2022/05/21 05:15:20;;;;;;;8.33;6.70;;;;;;;17.40;83.20;98798.63;4176464;28;21282;-88
2022/05/21 05:17:25;;;;;;;8.03;7.23;;;;;;;17.42;83.31;98788.75;4176916;28;21005;-90
2022/05/21 05:19:47;;;;;;;7.73;7.03;;;;;;;17.46;81.98;98785.75;4181454;28;21162;-88
2022/05/21 05:21:50;;;;;;;9.07;7.57;;;;;;;17.50;82.53;98779.25;4183952;28;20632;-89
2022/05/21 05:23:54;;;;;;;7.70;6.90;;;;;;;17.54;82.14;98789.38;4178820;28;20678;-88
2022/05/21 05:25:59;;;;;;;8.83;7.60;;;;;;;17.58;82.24;98784.69;4180016;28;20639;-88
2022/05/21 05:28:02;;;;;;;9.90;7.50;;;;;;;17.65;82.13;98791.97;4175465;28;20648;-89
2022/05/21 05:30:06;;;;;;;8.43;7.63;;;;;;;17.71;81.46;98791.44;4162139;28;20663;-88
2022/05/21 05:32:10;;;;;;;8.47;7.40;;;;;;;17.77;82.03;98795.34;4195449;28;20745;-89
2022/05/21 05:34:15;;;;;;;8.13;7.33;;;;;;;17.84;81.24;98791.22;4195757;28;20635;-88
2022/05/21 05:36:18;;;;;;;8.07;7.23;;;;;;;17.92;79.82;98794.88;4177623;28;20747;-89
2022/05/21 05:38:22;;;;;;;8.50;7.60;;;;;;;18.05;79.94;98800.75;4174067;28;20647;-88
2022/05/21 05:40:26;;;;;;;7.73;6.93;;;;;;;18.20;79.17;98795.00;4176893;28;20636;-88
2022/05/21 05:42:29;;;;;;;7.63;6.83;;;;;;;18.20;79.64;98794.16;4176669;28;20629;-89
2022/05/21 05:44:32;;;;;;;7.80;7.10;;;;;;;18.35;79.07;98800.75;4176382;28;20660;-88
2022/05/21 05:46:36;;;;;;;8.40;7.60;;;;;;;18.38;79.48;98803.13;4176229;28;21213;-90
2022/05/21 05:48:39;;;;;;;7.60;6.83;;;;;;;18.67;77.99;98797.75;4178176;28;21055;-88
2022/05/21 05:50:44;;;;;;;6.80;6.20;;;;;;;19.06;76.67;98802.09;4174238;28;20979;-88
2022/05/21 05:52:47;;;;;;;7.83;6.80;;;;;;;19.24;76.46;98806.53;4177658;28;21163;-89
2022/05/21 05:55:03;;;;;;;7.00;6.40;;;;;;;19.48;75.75;98804.28;4196355;28;20657;-88
2022/05/21 05:57:10;;;;;;;8.20;5.93;;;;;;;19.58;73.77;98805.94;4171080;28;20625;-88
2022/05/21 06:01:39;;;;;;;5.90;5.30;;;;;;;19.74;75.23;98806.19;4180937;28;20640;-88
2022/05/21 06:03:42;;;;;;;5.77;5.27;;;;;;;19.98;75.32;98814.47;4160370;28;20793;-88
2022/05/21 06:05:49;;;;;;;6.93;5.60;;;;;;;20.17;74.23;98820.53;4176862;28;20636;-89
2022/05/21 06:08:03;;;;;;;5.80;5.17;;;;;;;20.46;71.05;98814.13;4160674;28;20634;-88
2022/05/21 06:10:07;;;;;;;5.67;5.07;;;;;;;20.65;71.36;98819.31;4177168;28;20717;-88
2022/05/21 06:12:11;;;;;;;5.73;4.97;;;;;;;20.75;69.20;98816.63;4191457;28;20706;-89
2022/05/21 06:14:14;;;;;;;9.10;5.40;;;;;;;20.90;70.15;98816.81;4159805;28;20640;-88
2022/05/21 06:16:17;;;;;;;5.50;4.93;;;;;;;20.94;70.18;98823.50;4176175;28;20688;-89
2022/05/21 06:18:22;;;;;;;5.47;4.97;;;;;;;21.06;70.10;98824.09;4176680;28;20671;-88
2022/05/21 06:20:37;;;;;;;6.10;4.57;;;;;;;21.13;69.14;98820.66;4159429;28;20646;-89
2022/05/21 06:22:42;;;;;;;5.10;4.50;;;;;;;21.33;68.51;98823.03;4166555;28;20701;-89
2022/05/21 06:24:45;;;;;;;6.50;4.23;;;;;;;21.50;67.43;98826.66;4159367;28;20744;-89
2022/05/21 06:26:49;;;;;;;5.80;4.43;;;;;;;21.25;67.87;98819.44;4179810;28;20654;-88
2022/05/21 06:28:52;;;;;;;4.83;4.37;;;;;;;21.37;67.55;98818.22;4191542;28;21052;-88
2022/05/21 06:30:56;;;;;;;5.10;4.10;;;;;;;21.70;68.86;98818.34;4182969;28;21206;-88
2022/05/21 06:32:59;;;;;;;4.30;3.90;;;;;;;22.01;66.64;98823.03;4162306;28;20633;-87
2022/05/21 06:35:03;;;;;;;4.37;3.50;;;;;;;22.24;66.44;98826.84;4193241;28;20727;-86
2022/05/21 06:37:13;;;;;;;3.80;3.33;;;;;;;22.45;66.21;98825.44;4189154;28;21223;-88
2022/05/21 06:39:18;;;;;;;5.17;3.80;;;;;;;22.69;65.07;98833.50;4155885;28;20701;-88
2022/05/21 06:41:21;;;;;;;6.00;5.40;;;;;;;22.86;63.28;98838.69;4194941;28;20663;-88
2022/05/21 06:43:24;;;;;;;5.50;4.40;;;;;;;23.06;64.28;98844.59;4188108;28;20621;-88
2022/05/21 06:45:28;;;;;;;3.83;3.43;;;;;;;23.18;63.84;98832.66;4170316;28;20711;-87
2022/05/21 06:47:31;;;;;;;3.93;3.30;;;;;;;23.30;63.42;98825.00;4157112;28;21100;-88
2022/05/21 06:49:35;;;;;;;4.13;3.40;;;;;;;23.41;61.44;98824.69;4171086;28;20613;-87
2022/05/21 06:51:38;;;;;;;5.97;3.30;;;;;;;23.49;63.76;98823.84;4163222;28;20714;-88
2022/05/21 06:53:41;;;;;;;6.37;4.40;;;;;;;23.54;62.92;98837.50;4164060;28;20744;-88
2022/05/21 06:55:46;;;;;;;4.50;4.10;;;;;;;23.58;61.64;98831.66;4188487;28;21209;-88
2022/05/21 06:57:49;;;;;;;5.70;4.00;;;;;;;23.47;61.02;98818.69;4188635;28;20635;-89
2022/05/21 06:59:53;;;;;;;5.77;4.10;;;;;;;23.55;62.09;98826.66;4179549;28;20723;-88
2022/05/21 07:01:56;;;;;;;4.90;4.20;;;;;;;23.72;62.73;98839.00;4161646;28;20631;-88
2022/05/21 07:04:04;;;;;;;6.00;4.60;;;;;;;23.74;61.55;98837.84;4173206;28;20639;-88
2022/05/21 07:08:29;;;;;;;5.70;4.57;;;;;;;23.62;62.26;98826.81;4160579;28;21076;-88
2022/05/21 07:10:33;;;;;;;6.10;4.37;;;;;;;23.67;62.90;98838.69;4175129;28;20651;-88
2022/05/21 07:12:37;;;;;;;4.60;4.20;;;;;;;23.72;63.71;98826.53;4173703;28;20631;-88
2022/05/21 07:14:45;;;;;;;5.13;4.30;;;;;;;23.74;64.56;98837.03;4186223;28;20734;-88
2022/05/21 07:16:50;;;;;;;5.90;4.50;;;;;;;23.77;62.82;98826.03;4174659;28;20624;-89
2022/05/21 07:18:53;;;;;;;6.53;4.27;;;;;;;23.86;62.48;98819.66;4165162;28;20641;-88
2022/05/21 07:20:56;;;;;;;4.50;3.40;;;;;;;23.74;60.27;98829.84;4174982;28;20664;-88
2022/05/21 07:23:00;;;;;;;6.30;3.47;;;;;;;23.70;61.56;98830.34;4154550;28;21088;-88
2022/05/21 07:25:04;;;;;;;3.97;3.57;;;;;;;23.80;62.39;98821.19;4167552;28;20711;-88
2022/05/21 07:27:07;;;;;;;6.40;4.67;;;;;;;23.90;59.56;98837.00;4189573;28;20634;-88
2022/05/21 07:29:11;;;;;;;4.17;3.53;;;;;;;23.98;60.43;98831.63;4172804;28;20627;-89
2022/05/21 07:31:15;;;;;;;4.13;3.70;;;;;;;23.94;61.00;98833.00;4163959;28;20659;-88
2022/05/21 07:33:20;;;;;;;4.33;3.47;;;;;;;23.99;60.12;98835.97;4190690;28;20627;-88
2022/05/21 07:35:24;;;;;;;4.23;3.60;;;;;;;23.96;61.18;98838.97;4160265;28;21215;-89
2022/05/21 07:37:28;;;;;;;5.30;3.17;;;;;;;24.06;61.69;98831.63;4179086;28;20641;-88
2022/05/21 07:39:32;;;;;;;5.40;3.50;;;;;;;24.05;61.11;98820.13;4185618;28;21083;-89
2022/05/21 07:41:36;;;;;;;5.00;2.63;;;;;;;24.11;60.71;98829.28;4176679;28;20706;-88
2022/05/21 07:43:39;;;;;;;3.50;2.97;;;;;;;24.24;60.92;98828.56;4157527;28;20622;-88
2022/05/21 07:45:45;;;;;;;3.47;3.10;;;;;;;24.40;61.01;98827.72;4179844;28;20706;-87
2022/05/21 07:48:18;;;;;;;4.43;3.00;;;;;;;24.58;60.35;98826.47;4092841;28;20686;-87
2022/05/21 07:50:23;;;;;;;21.00;3.10;;;;;;;24.63;58.70;98818.78;4161204;28;20699;-88
2022/05/21 07:52:27;;;;;;;4.70;2.50;;;;;;;24.75;57.46;98820.06;4174947;28;21251;-88
2022/05/21 07:54:31;;;;;;;4.23;2.60;;;;;;;24.80;58.20;98807.84;4172950;28;20671;-87
2022/05/21 07:56:34;;;;;;;7.20;2.83;;;;;;;24.93;57.77;98807.28;4186285;28;20654;-90
2022/05/21 07:58:39;;;;;;;4.47;2.37;;;;;;;25.00;58.72;98810.91;4154229;28;21112;-87
2022/05/21 08:00:46;;;;;;;3.00;2.10;;;;;;;25.10;56.80;98803.53;4170471;28;20718;-90
2022/05/21 08:02:49;;;;;;;3.50;2.13;;;;;;;25.14;56.65;98806.47;4188911;28;20647;-89
2022/05/21 08:04:53;;;;;;;3.30;2.13;;;;;;;25.22;57.48;98803.75;4175599;28;21110;-88
2022/05/21 08:06:56;;;;;;;3.43;2.50;;;;;;;25.29;58.21;98806.56;4177247;28;20651;-88
2022/05/21 08:09:01;;;;;;;4.70;2.70;;;;;;;25.39;59.02;98801.78;4159194;28;20760;-87
2022/05/21 08:11:04;;;;;;;4.30;2.60;;;;;;;25.36;57.54;98805.63;4174183;28;21061;-87
2022/05/21 08:13:07;;;;;;;5.63;2.60;;;;;;;25.34;56.74;98820.19;4158764;28;21122;-88
2022/05/21 08:15:11;;;;;;;3.23;2.03;;;;;;;25.34;60.16;98813.00;4171948;28;20640;-86
2022/05/21 08:17:16;;;;;;;4.50;2.67;;;;;;;25.42;59.08;98820.13;4174729;28;20706;-88
2022/05/21 08:19:32;;;;;;;4.87;2.10;;;;;;;25.44;56.65;98821.63;4193631;28;21230;-87
2022/05/21 08:21:37;;;;;;;2.97;2.13;;;;;;;25.46;57.90;98822.25;4173859;28;20636;-88
2022/05/21 08:28:21;;;;;;;2.40;2.03;;;;;;;25.38;54.16;98814.31;4174298;28;20628;-89
2022/05/21 08:30:25;;;;;;;5.23;2.10;;;;;;;25.33;59.14;98814.03;4160315;28;20634;-87
2022/05/21 08:32:30;;;;;;;3.83;2.00;;;;;;;25.29;59.45;98812.72;4158071;28;20661;-87
2022/05/21 08:34:55;;;;;;;4.10;2.97;;;;;;;25.35;57.17;98820.03;4160704;28;20636;-90
2022/05/21 08:36:58;;;;;;;4.67;2.50;;;;;;;25.35;58.61;98813.81;4173487;28;20657;-92
2022/05/21 08:39:01;;;;;;;7.80;6.03;;;;;;;25.39;58.19;98810.63;4161327;28;20752;-91
2022/05/21 08:41:10;;;;;;;4.37;1.80;;;;;;;25.40;55.62;98814.13;4176907;28;21265;-90
2022/05/21 08:43:20;;;;;;;4.20;2.00;;;;;;;25.42;58.24;98818.28;4159430;28;20626;-89
2022/05/21 08:45:24;;;;;;;4.57;2.23;;;;;;;25.36;56.76;98810.97;4159031;28;20672;-91
2022/05/21 08:47:34;;;;;;;3.00;1.80;;;;;;;25.23;59.01;98810.75;4191781;28;20697;-92
2022/05/21 08:49:59;;;;;;;4.00;1.90;;;;;;;25.29;57.74;98807.38;4153609;28;21298;-91
2022/05/21 08:52:14;;;;;;;3.00;1.50;;;;;;;25.31;57.51;98796.50;4175035;28;20652;-92
2022/05/21 08:54:20;;;;;;;2.87;1.63;;;;;;;25.27;57.30;98803.22;4157956;28;20637;-91
2022/05/21 08:56:24;;;;;;;3.23;1.70;;;;;;;25.33;58.67;98798.00;4177448;28;20632;-90
2022/05/21 08:58:32;;;;;;;2.33;1.50;;;;;;;25.37;56.97;98801.13;4170351;28;20669;-91
2022/05/21 09:00:43;;;;;;;3.10;1.83;;;;;;;25.43;57.02;98797.75;4190627;28;20649;-93
2022/05/21 09:02:49;;;;;;;3.13;1.40;;;;;;;25.38;57.90;98798.28;4158496;28;21265;-92
2022/05/21 09:04:52;;;;;;;3.33;1.57;;;;;;;25.34;56.77;98796.97;4160756;28;20684;-91
2022/05/21 09:07:00;;;;;;;3.20;1.40;;;;;;;25.35;58.48;98793.31;4173555;28;20645;-93
2022/05/21 09:09:10;;;;;;;3.00;1.57;;;;;;;25.39;58.25;98796.44;4176335;28;21265;-92
2022/05/21 09:11:16;;;;;;;4.50;1.53;;;;;;;25.34;57.69;98788.97;4176401;28;20679;-92
2022/05/21 09:13:36;;;;;;;2.83;1.40;;;;;;;25.37;58.06;98801.13;4175665;28;20641;-90
2022/05/21 09:18:04;;;;;;;2.33;1.20;;;;;;;25.39;56.96;98794.59;4159814;28;20743;-92
2022/05/21 09:20:08;;;;;;;2.03;1.40;;;;;;;25.37;58.07;98796.63;4176712;28;20682;-92
2022/05/21 09:22:15;;;;;;;3.50;1.93;;;;;;;25.41;57.34;98791.72;4174613;28;20668;-91
2022/05/21 09:24:41;;;;;;;1.90;1.23;;;;;;;25.41;57.72;98792.59;4173117;28;21294;-91
2022/05/21 09:26:47;;;;;;;2.30;1.13;;;;;;;25.40;58.08;98779.41;4177392;28;20659;-92
2022/05/21 09:29:13;;;;;;;3.40;2.20;;;;;;;25.40;57.06;98793.59;4178898;28;20632;-90
2022/05/21 09:31:29;;;;;;;8.30;7.43;;;;;;;25.51;57.86;98793.16;4177579;28;21313;-91
2022/05/21 09:33:38;;;;;;;4.17;1.70;;;;;;;25.52;54.33;98775.28;4181774;28;20683;-90
2022/05/21 09:35:52;;;;;;;3.33;1.40;;;;;;;25.42;54.56;98782.72;4194273;28;20608;-93
2022/05/21 09:38:00;;;;;;;2.93;1.57;;;;;;;25.33;57.47;98771.28;4178747;28;20644;-91
2022/05/21 09:40:23;;;;;;;3.90;1.37;;;;;;;25.26;55.64;98764.97;4178542;28;20670;-93
2022/05/21 09:47:14;;;;;;;4.07;3.00;;;;;;;25.03;56.69;98760.66;4172494;28;20763;-91
2022/05/21 09:49:29;;;;;;;6.43;1.90;;;;;;;25.07;58.96;98769.97;4177789;28;20639;-91
2022/05/21 09:51:34;;;;;;;2.20;1.60;;;;;;;25.22;58.60;98773.53;4162987;28;21066;-91
2022/05/21 09:53:39;;;;;;;2.37;1.27;;;;;;;25.24;56.29;98779.50;4164819;28;21077;-92
2022/05/21 09:55:47;;;;;;;2.83;1.20;;;;;;;25.26;57.23;98773.00;4156144;28;21235;-93
2022/05/21 09:57:52;;;;;;;4.10;1.63;;;;;;;25.25;55.47;98767.84;4159313;28;20660;-94
2022/05/21 10:00:06;;;;;;;2.60;1.40;;;;;;;25.26;57.33;98758.81;4168907;28;21214;-91
2022/05/21 10:02:19;;;;;;;3.07;1.27;;;;;;;25.29;57.54;98767.28;4193874;28;20615;-92
2022/05/21 10:04:28;;;;;;;1.90;1.00;;;;;;;25.34;55.75;98764.09;4167219;28;20728;-93
2022/05/21 10:06:33;;;;;;;2.20;1.20;;;;;;;25.29;55.82;98766.47;4168082;28;21077;-92
2022/05/21 10:11:07;;;;;;;2.00;1.40;;;;;;;25.25;58.13;98752.63;4168365;28;20638;-91
2022/05/21 10:13:14;;;;;;;1.90;1.17;;;;;;;25.35;57.25;98749.69;4170715;28;21191;-91
2022/05/21 10:15:21;;;;;;;3.40;1.50;;;;;;;25.44;58.29;98753.97;4176046;28;20644;-92
2022/05/21 10:17:29;;;;;;;2.90;1.30;;;;;;;25.39;56.68;98746.47;4167408;28;20981;-93
2022/05/21 10:19:54;;;;;;;2.70;1.30;;;;;;;25.35;57.46;98749.69;4183334;28;21064;-91
2022/05/21 10:22:08;;;;;;;2.07;1.10;;;;;;;25.40;56.47;98761.50;4191763;28;20631;-94